createdAt,value
2022-12-08T04:42:39.156Z,36.63
2022-12-08T04:45:42.965Z,36.03
2022-12-08T04:48:45.506Z,37.50
2022-12-08T04:51:49.026Z,37.15
2022-12-08T04:54:51.527Z,40.17
2022-12-08T04:57:54.384Z,37.58
2022-12-08T05:00:56.986Z,38.47
2022-12-08T05:03:59.787Z,46.13
2022-12-08T05:07:02.391Z,39.72
2022-12-08T05:10:06.188Z,39.45
2022-12-08T05:13:09.836Z,42.88
2022-12-08T05:16:14.557Z,38.92
2022-12-08T05:19:18.167Z,38.55
2022-12-08T05:22:20.973Z,41.47
2022-12-08T05:25:23.457Z,37.20
2022-12-08T05:28:43.312Z,38.13
2022-12-08T05:31:47.131Z,37.47
2022-12-08T05:34:49.990Z,41.75
2022-12-08T05:37:53.978Z,36.58
2022-12-08T05:40:56.868Z,39.78
2022-12-08T05:43:59.322Z,37.88
2022-12-08T05:47:02.145Z,38.03
2022-12-08T05:50:06.106Z,44.13
2022-12-08T05:53:09.258Z,39.03
2022-12-08T05:56:12.349Z,40.40
2022-12-08T05:59:16.619Z,40.90
2022-12-08T06:02:19.269Z,41.03
2022-12-08T06:05:22.242Z,37.75
2022-12-08T06:08:24.918Z,43.25
2022-12-08T06:11:30.327Z,45.05
2022-12-08T06:14:32.841Z,38.33
2022-12-08T06:17:35.916Z,35.45
2022-12-08T06:20:41.194Z,36.08
2022-12-08T06:23:44.677Z,38.38
2022-12-08T06:26:47.234Z,39.78
2022-12-08T06:29:50.007Z,38.67
2022-12-08T06:32:52.893Z,39.53
2022-12-08T06:36:05.309Z,37.08
2022-12-08T06:39:09.813Z,36.63
2022-12-08T06:42:31.258Z,41.35
2022-12-08T06:45:33.870Z,37.38
2022-12-08T06:48:36.773Z,35.63
2022-12-08T06:51:39.902Z,39.85
2022-12-08T06:54:42.726Z,33.72
2022-12-08T06:57:45.281Z,43.03
2022-12-08T07:00:48.216Z,40.45
2022-12-08T07:03:50.847Z,41.97
2022-12-08T07:06:53.731Z,39.88
2022-12-08T07:09:56.619Z,37.97
2022-12-08T07:12:59.511Z,38.28
2022-12-08T07:16:05.639Z,38.38
2022-12-08T07:19:08.378Z,38.80
2022-12-08T07:22:11.163Z,34.33
2022-12-08T07:25:13.917Z,37.65
2022-12-08T07:28:16.634Z,41.90
2022-12-08T07:31:24.900Z,38.60
2022-12-08T07:34:27.968Z,36.70
2022-12-08T07:37:37.024Z,38.30
2022-12-08T07:40:41.630Z,36.50
2022-12-08T07:43:45.022Z,36.63
2022-12-08T07:46:47.547Z,39.53
2022-12-08T07:49:50.463Z,34.28
2022-12-08T07:52:53.143Z,34.50
2022-12-08T07:55:56.021Z,37.00
2022-12-08T07:58:58.701Z,45.47
2022-12-08T08:02:22.988Z,58.87
2022-12-08T08:05:24.568Z,53.25
2022-12-08T08:08:27.193Z,46.20
2022-12-08T08:11:30.071Z,45.30
2022-12-08T08:14:32.577Z,42.45
2022-12-08T08:17:36.908Z,48.60
2022-12-08T08:20:43.201Z,45.50
2022-12-08T08:23:46.076Z,41.85
2022-12-08T08:26:50.738Z,45.83
2022-12-08T08:29:53.934Z,40.10
2022-12-08T08:32:56.997Z,41.00
2022-12-08T08:36:00.023Z,40.53
2022-12-08T08:39:03.766Z,39.15
2022-12-08T08:42:06.527Z,38.90
2022-12-08T08:45:09.561Z,38.13
2022-12-08T08:48:12.397Z,43.95
2022-12-08T08:51:15.471Z,37.88
2022-12-08T08:54:18.321Z,35.67
2022-12-08T08:57:25.541Z,42.53
2022-12-08T09:00:29.295Z,42.20
2022-12-08T09:03:31.934Z,38.75
2022-12-08T09:06:34.798Z,50.95
2022-12-08T09:09:38.465Z,39.92
2022-12-08T09:12:41.467Z,41.03
2022-12-08T09:15:44.064Z,38.47
2022-12-08T09:18:49.677Z,40.03
2022-12-08T09:21:52.257Z,37.40
2022-12-08T09:24:55.119Z,38.47
2022-12-08T09:27:57.543Z,33.17
2022-12-08T09:31:01.825Z,39.22
2022-12-08T09:34:05.335Z,35.22
2022-12-08T09:37:08.160Z,37.47
2022-12-08T09:40:18.583Z,34.55
2022-12-08T09:43:43.344Z,38.05
2022-12-08T09:46:48.475Z,35.65
2022-12-08T09:49:55.888Z,37.80
2022-12-08T09:52:58.420Z,35.40
2022-12-08T09:56:06.902Z,36.90
2022-12-08T09:59:09.329Z,36.95
2022-12-08T10:02:28.293Z,36.90
2022-12-08T10:05:37.758Z,33.72
2022-12-08T10:08:47.989Z,31.75
2022-12-08T10:12:13.743Z,32.95
2022-12-08T10:15:57.540Z,35.72
2022-12-08T10:19:15.616Z,27.77
2022-12-08T10:22:24.768Z,35.00
2022-12-08T10:25:41.430Z,33.00
2022-12-08T10:28:46.759Z,32.03
2022-12-08T10:31:49.654Z,37.22
2022-12-08T10:35:02.610Z,33.58
2022-12-08T10:38:06.521Z,36.83
2022-12-08T10:41:12.076Z,31.58
2022-12-08T10:44:16.838Z,37.33
2022-12-08T10:47:22.688Z,38.67
2022-12-08T10:50:37.024Z,37.83
2022-12-08T10:53:46.044Z,40.88
2022-12-08T10:56:57.693Z,46.28
2022-12-08T11:00:00.291Z,37.70
2022-12-08T11:03:05.171Z,36.20
2022-12-08T11:06:25.475Z,30.02
2022-12-08T11:09:37.237Z,31.20
2022-12-08T11:12:44.138Z,32.97
2022-12-08T11:15:47.407Z,30.77
2022-12-08T11:18:56.983Z,32.55
2022-12-08T11:21:59.807Z,32.75
2022-12-08T11:25:17.599Z,32.63
2022-12-08T11:28:24.353Z,35.50
2022-12-08T11:31:49.858Z,33.10
2022-12-08T11:35:04.493Z,32.50
2022-12-08T11:38:21.680Z,27.05
2022-12-08T11:41:32.098Z,26.25
2022-12-08T11:44:50.435Z,26.17
2022-12-08T11:48:11.671Z,25.15
2022-12-08T11:51:29.749Z,24.20
2022-12-08T11:54:45.330Z,21.33
2022-12-08T11:57:48.858Z,23.27
2022-12-08T12:00:51.838Z,27.02
2022-12-08T12:04:14.092Z,18.98
2022-12-08T12:07:26.196Z,22.27
2022-12-08T12:11:36.990Z,21.27
2022-12-08T12:15:05.269Z,17.67
2022-12-08T12:18:46.552Z,28.65
2022-12-08T12:21:55.069Z,21.55
2022-12-08T12:24:57.990Z,21.25
2022-12-08T12:28:05.364Z,23.10
2022-12-08T12:31:18.441Z,19.05
2022-12-08T12:34:25.730Z,18.90
2022-12-08T12:37:41.756Z,25.20
2022-12-08T12:40:44.623Z,17.75
2022-12-08T12:44:12.421Z,18.87
2022-12-08T12:47:56.666Z,16.42
2022-12-08T12:50:59.922Z,22.65
2022-12-08T12:54:21.006Z,17.65
2022-12-08T12:57:33.856Z,16.25
2022-12-08T13:00:37.359Z,17.65
2022-12-08T13:04:04.221Z,16.23
2022-12-08T13:07:06.894Z,17.75
2022-12-08T13:10:09.686Z,16.83
2022-12-08T13:13:12.704Z,16.45
2022-12-08T13:16:22.613Z,30.70
2022-12-08T13:19:25.796Z,32.50
2022-12-08T13:22:47.115Z,33.65
2022-12-08T13:25:54.001Z,36.75
2022-12-08T13:29:01.422Z,32.20
2022-12-08T13:32:24.937Z,34.58
2022-12-08T13:35:28.368Z,34.00
2022-12-08T13:38:35.568Z,31.02
2022-12-08T13:41:44.130Z,20.55
2022-12-08T13:49:09.952Z,26.25
2022-12-08T13:58:44.524Z,17.83
2022-12-08T14:01:49.800Z,20.73
2022-12-08T14:08:59.338Z,22.48
2022-12-08T14:12:06.961Z,21.92
2022-12-08T14:15:14.343Z,24.70
2022-12-08T14:18:26.508Z,21.95
2022-12-08T14:21:34.443Z,19.10
2022-12-08T14:27:42.019Z,20.58
2022-12-08T14:30:45.114Z,23.23
2022-12-08T14:33:50.546Z,24.55
2022-12-08T14:36:56.163Z,31.40
2022-12-08T14:40:02.681Z,29.45
2022-12-08T14:43:12.426Z,29.73
2022-12-08T14:46:23.166Z,34.80
2022-12-08T14:49:34.682Z,29.52
2022-12-08T14:52:44.114Z,29.27
2022-12-08T14:55:48.494Z,28.48
2022-12-08T14:59:06.622Z,26.95
2022-12-08T15:02:25.582Z,27.73
2022-12-08T15:05:31.970Z,30.77
2022-12-08T15:08:51.222Z,25.73
2022-12-08T15:12:26.835Z,23.52
2022-12-08T15:15:31.764Z,27.08
2022-12-08T15:18:40.983Z,25.00
2022-12-08T15:21:45.497Z,26.05
2022-12-08T15:24:48.103Z,28.30
2022-12-08T15:27:53.156Z,29.70
2022-12-08T15:30:56.357Z,28.65
2022-12-08T15:33:59.215Z,25.08
2022-12-08T15:37:03.992Z,26.20
2022-12-08T15:40:17.172Z,24.92
2022-12-08T15:43:20.344Z,26.23
2022-12-08T15:46:23.313Z,25.67
2022-12-08T15:49:26.878Z,25.15
2022-12-08T15:52:29.672Z,25.02
2022-12-08T15:55:38.487Z,27.52
2022-12-08T15:58:58.682Z,25.62
2022-12-08T16:02:17.912Z,23.85
2022-12-08T16:05:46.565Z,26.15
2022-12-08T16:09:06.140Z,25.17
2022-12-08T16:16:11.085Z,25.58
2022-12-08T16:19:14.662Z,24.17
2022-12-08T16:26:16.216Z,25.73
2022-12-08T16:29:06.384Z,26.27
2022-12-08T16:32:10.053Z,22.83
2022-12-08T16:35:14.497Z,24.70
2022-12-08T16:38:18.785Z,28.60
2022-12-08T16:41:39.903Z,25.70
2022-12-08T16:44:43.126Z,22.95
2022-12-08T16:47:48.634Z,25.40
2022-12-08T16:50:51.533Z,30.60
2022-12-08T16:53:54.444Z,24.70
2022-12-08T16:56:57.333Z,25.60
2022-12-08T16:59:59.971Z,26.83
